createdAt,value
2022-10-19T00:01:05.723Z,64.80
2022-10-19T00:03:36.816Z,64.70
2022-10-19T00:06:20.513Z,64.70
2022-10-19T00:08:47.155Z,65.00
2022-10-19T00:11:13.831Z,64.80
2022-10-19T00:13:40.553Z,64.70
2022-10-19T00:16:13.465Z,64.80
2022-10-19T00:18:43.347Z,64.90
2022-10-19T00:21:16.559Z,64.80
2022-10-19T00:23:44.420Z,64.70
2022-10-19T00:26:12.753Z,64.70
2022-10-19T00:28:39.529Z,64.80
2022-10-19T00:31:09.569Z,64.80
2022-10-19T00:33:36.282Z,64.80
2022-10-19T00:36:04.290Z,65.00
2022-10-19T00:38:33.621Z,65.00
2022-10-19T00:41:02.879Z,65.00
2022-10-19T00:43:31.053Z,65.00
2022-10-19T00:46:00.564Z,64.80
2022-10-19T00:48:34.119Z,64.90
2022-10-19T00:51:01.377Z,64.90
2022-10-19T00:53:30.626Z,64.90
2022-10-19T00:56:07.749Z,64.90
2022-10-19T00:58:34.479Z,65.00
2022-10-19T01:01:05.086Z,65.00
2022-10-19T01:03:33.173Z,65.00
2022-10-19T01:06:00.670Z,65.10
2022-10-19T01:08:27.962Z,65.10
2022-10-19T01:11:24.474Z,65.00
2022-10-19T01:14:19.381Z,65.00
2022-10-19T01:17:07.743Z,65.00
2022-10-19T01:19:45.285Z,65.00
2022-10-19T01:22:33.073Z,65.10
2022-10-19T01:25:24.367Z,65.00
2022-10-19T01:27:56.558Z,64.90
2022-10-19T01:30:47.253Z,65.00
2022-10-19T01:33:41.705Z,64.90
2022-10-19T01:36:14.250Z,65.10
2022-10-19T01:38:56.248Z,65.00
2022-10-19T01:41:32.902Z,64.90
2022-10-19T01:44:34.738Z,65.00
2022-10-19T01:47:09.965Z,65.10
2022-10-19T01:50:03.433Z,65.00
2022-10-19T01:52:32.323Z,65.10
2022-10-19T01:55:01.864Z,65.00
2022-10-19T01:57:36.854Z,65.10
2022-10-19T02:00:07.551Z,65.10
2022-10-19T02:02:44.982Z,65.00
2022-10-19T02:05:15.327Z,65.10
2022-10-19T02:07:46.380Z,65.20
2022-10-19T02:12:47.913Z,65.30
2022-10-19T02:15:19.691Z,65.30
2022-10-19T02:17:51.594Z,65.30
2022-10-19T02:20:18.658Z,65.30
2022-10-19T02:22:48.176Z,65.30
2022-10-19T02:25:15.562Z,65.20
2022-10-19T02:27:42.992Z,65.30
2022-10-19T02:30:12.457Z,65.30
2022-10-19T02:32:39.266Z,65.30
2022-10-19T02:35:08.653Z,65.30
2022-10-19T02:40:04.552Z,65.20
2022-10-19T02:42:36.091Z,65.30
2022-10-19T02:45:12.192Z,65.20
2022-10-19T02:47:49.297Z,65.20
2022-10-19T02:50:16.948Z,65.30
2022-10-19T02:52:43.623Z,65.30
2022-10-19T02:55:11.675Z,65.30
2022-10-19T02:57:38.256Z,65.30
2022-10-19T03:00:07.059Z,65.30
2022-10-19T03:02:34.088Z,65.20
2022-10-19T03:05:00.718Z,65.20
2022-10-19T03:07:27.350Z,65.20
2022-10-19T03:09:55.656Z,65.30
2022-10-19T03:12:24.829Z,65.30
2022-10-19T03:14:51.414Z,65.30
2022-10-19T03:17:18.030Z,65.30
2022-10-19T03:19:44.742Z,65.30
2022-10-19T03:22:15.670Z,65.30
2022-10-19T03:24:42.339Z,65.40
2022-10-19T03:27:08.957Z,65.30
2022-10-19T03:29:37.973Z,65.30
2022-10-19T03:32:04.848Z,65.30
2022-10-19T03:34:31.539Z,65.40
2022-10-19T03:36:59.100Z,65.40
2022-10-19T03:39:25.939Z,65.50
2022-10-19T03:41:54.309Z,65.40
2022-10-19T03:44:20.938Z,65.60
2022-10-19T03:46:50.104Z,65.50
2022-10-19T03:49:20.096Z,65.40
2022-10-19T03:51:47.306Z,65.50
2022-10-19T03:54:16.280Z,65.50
2022-10-19T03:56:43.292Z,65.50
2022-10-19T03:59:14.228Z,65.60
2022-10-19T04:01:45.757Z,65.60
2022-10-19T04:04:18.914Z,65.60
2022-10-19T04:06:47.859Z,65.50
2022-10-19T04:09:17.543Z,65.50
2022-10-19T04:11:44.385Z,65.50
2022-10-19T04:14:22.641Z,65.40
2022-10-19T04:17:05.738Z,65.50
2022-10-19T04:19:39.710Z,65.60
2022-10-19T04:22:07.339Z,65.40
2022-10-19T04:24:35.105Z,65.50
2022-10-19T04:27:01.876Z,65.50
2022-10-19T04:29:30.086Z,65.60
2022-10-19T04:31:57.820Z,65.60
2022-10-19T04:34:24.502Z,65.60
2022-10-19T04:36:54.709Z,65.70
2022-10-19T04:39:21.309Z,65.70
2022-10-19T04:41:47.976Z,65.70
2022-10-19T04:44:15.403Z,65.70
2022-10-19T04:46:42.077Z,65.60
2022-10-19T04:49:08.667Z,65.70
2022-10-19T04:51:35.404Z,65.70
2022-10-19T04:54:03.133Z,65.80
2022-10-19T04:56:32.133Z,65.80
2022-10-19T04:59:00.057Z,65.80
2022-10-19T05:01:28.493Z,65.90
2022-10-19T05:06:29.150Z,66.20
2022-10-19T05:08:56.671Z,66.40
2022-10-19T05:11:23.660Z,66.40
2022-10-19T05:13:50.647Z,66.40
2022-10-19T05:16:20.298Z,66.40
2022-10-19T05:18:48.928Z,66.40
2022-10-19T05:21:16.712Z,66.20
2022-10-19T05:23:43.901Z,66.20
2022-10-19T05:26:19.160Z,66.20
2022-10-19T05:28:50.641Z,66.20
2022-10-19T05:31:19.678Z,66.20
2022-10-19T05:33:47.404Z,66.10
2022-10-19T05:36:25.540Z,66.00
2022-10-19T05:38:54.372Z,65.90
2022-10-19T05:41:22.542Z,66.60
2022-10-19T05:43:59.913Z,66.10
2022-10-19T05:46:28.004Z,66.10
2022-10-19T05:48:55.623Z,66.10
2022-10-19T05:51:23.499Z,66.10
2022-10-19T05:53:50.626Z,66.20
2022-10-19T05:56:20.078Z,66.20
2022-10-19T05:58:47.430Z,66.20
2022-10-19T06:01:14.408Z,66.40
2022-10-19T06:03:41.090Z,66.50
2022-10-19T06:06:11.333Z,66.60
2022-10-19T06:08:38.921Z,66.70
2022-10-19T06:11:15.738Z,66.70
2022-10-19T06:13:44.422Z,67.00
2022-10-19T06:16:12.749Z,66.90
2022-10-19T06:18:41.494Z,67.30
2022-10-19T06:21:14.034Z,67.60
2022-10-19T06:23:44.668Z,68.00
2022-10-19T06:26:13.329Z,68.00
2022-10-19T06:28:41.555Z,68.10
2022-10-19T06:31:09.384Z,68.30
2022-10-19T06:33:36.686Z,68.50
2022-10-19T06:36:07.785Z,68.80
2022-10-19T06:38:34.531Z,69.70
2022-10-19T06:41:01.529Z,69.90
2022-10-19T06:43:28.228Z,70.20
2022-10-19T06:45:55.456Z,70.60
2022-10-19T06:48:22.088Z,70.80
2022-10-19T06:50:57.568Z,71.10
2022-10-19T06:53:24.645Z,71.80
2022-10-19T06:55:51.417Z,71.40
2022-10-19T06:58:18.133Z,71.60
2022-10-19T07:00:44.864Z,71.60
2022-10-19T07:03:11.500Z,71.40
2022-10-19T07:05:38.097Z,71.30
2022-10-19T07:08:04.855Z,71.20
2022-10-19T07:10:33.730Z,71.30
2022-10-19T07:13:00.383Z,71.40
2022-10-19T07:15:27.087Z,71.60
2022-10-19T07:17:53.832Z,71.80
2022-10-19T07:20:20.509Z,71.90
2022-10-19T07:22:47.138Z,72.20
2022-10-19T07:25:14.081Z,72.50
2022-10-19T07:27:40.875Z,72.80
2022-10-19T07:30:07.979Z,73.00
2022-10-19T07:32:36.414Z,73.30
2022-10-19T07:35:03.217Z,73.50
2022-10-19T07:37:29.793Z,73.70
2022-10-19T07:39:56.392Z,73.90
2022-10-19T07:42:23.059Z,74.00
2022-10-19T07:44:49.663Z,74.10
2022-10-19T07:47:16.468Z,74.30
2022-10-19T07:49:43.087Z,74.40
2022-10-19T07:52:09.702Z,74.40
2022-10-19T07:54:36.322Z,74.50
2022-10-19T07:57:03.058Z,74.70
2022-10-19T07:59:29.729Z,74.80
2022-10-19T08:01:57.157Z,74.80
2022-10-19T08:07:10.694Z,74.90
2022-10-19T08:09:54.152Z,74.70
2022-10-19T08:12:22.471Z,74.80
2022-10-19T08:14:49.042Z,74.70
2022-10-19T08:17:17.438Z,74.80
2022-10-19T08:19:45.292Z,74.80
2022-10-19T08:22:12.318Z,75.00
2022-10-19T08:24:41.306Z,75.00
2022-10-19T08:27:08.392Z,75.20
2022-10-19T08:29:35.138Z,75.10
2022-10-19T08:32:01.725Z,75.20
2022-10-19T08:34:28.352Z,75.30
2022-10-19T08:36:55.015Z,75.30
2022-10-19T08:39:21.733Z,75.40
2022-10-19T08:44:53.388Z,75.60
2022-10-19T08:47:32.213Z,76.50
2022-10-19T08:49:59.726Z,75.40
2022-10-19T08:52:34.562Z,75.40
2022-10-19T08:55:08.895Z,75.60
2022-10-19T08:57:51.585Z,75.60
2022-10-19T09:00:21.132Z,76.10
2022-10-19T09:03:09.653Z,75.30
2022-10-19T09:05:50.569Z,76.10
2022-10-19T09:08:18.911Z,75.50
2022-10-19T09:10:50.084Z,75.20
2022-10-19T09:13:47.052Z,75.30
2022-10-19T09:16:21.242Z,75.40
2022-10-19T09:18:49.313Z,75.00
2022-10-19T09:21:28.120Z,75.10
2022-10-19T09:24:22.361Z,75.10
2022-10-19T09:26:55.405Z,75.30
2022-10-19T09:29:32.976Z,75.00
2022-10-19T09:32:03.442Z,75.10
2022-10-19T09:34:36.068Z,75.00
2022-10-19T09:37:03.488Z,74.90
2022-10-19T09:39:30.926Z,74.50
2022-10-19T09:42:04.648Z,74.80
2022-10-19T09:44:31.913Z,74.30
2022-10-19T09:47:24.445Z,74.10
2022-10-19T09:49:51.347Z,74.40
2022-10-19T09:52:45.211Z,74.00
2022-10-19T09:55:14.825Z,74.20
2022-10-19T09:57:50.014Z,73.70
2022-10-19T10:00:25.513Z,73.50
2022-10-19T10:02:54.335Z,73.40
2022-10-19T10:05:34.826Z,73.30
2022-10-19T10:08:01.605Z,73.60
2022-10-19T10:10:32.437Z,73.30
2022-10-19T10:13:00.476Z,73.20
2022-10-19T10:15:42.557Z,73.10
2022-10-19T10:18:15.424Z,73.20
2022-10-19T10:20:59.904Z,72.90
2022-10-19T10:23:31.329Z,72.80
2022-10-19T10:26:00.130Z,72.60
2022-10-19T10:28:28.969Z,72.40
2022-10-19T10:31:04.798Z,72.60
2022-10-19T10:33:44.051Z,72.50
2022-10-19T10:36:12.438Z,72.40
2022-10-19T10:38:48.847Z,72.00
2022-10-19T10:41:20.101Z,71.60
2022-10-19T10:44:00.932Z,71.50
2022-10-19T10:46:51.321Z,71.40
2022-10-19T10:49:27.285Z,71.30
2022-10-19T10:52:13.871Z,71.20
2022-10-19T10:54:40.714Z,70.90
2022-10-19T10:57:18.369Z,70.70
2022-10-19T10:59:58.834Z,70.40
2022-10-19T11:02:50.274Z,70.50
2022-10-19T11:05:31.630Z,70.30
2022-10-19T11:08:15.031Z,69.60
2022-10-19T11:10:51.350Z,69.50
2022-10-19T11:13:56.693Z,69.60
2022-10-19T11:16:34.622Z,69.30
2022-10-19T11:19:20.251Z,69.00
2022-10-19T11:22:04.703Z,69.00
2022-10-19T11:24:41.888Z,68.80
2022-10-19T11:27:21.275Z,68.80
2022-10-19T11:30:01.440Z,68.30
2022-10-19T11:33:05.417Z,68.20
2022-10-19T11:35:45.582Z,68.10
2022-10-19T11:38:40.505Z,68.90
2022-10-19T11:41:17.938Z,68.50
2022-10-19T11:44:02.748Z,68.40
2022-10-19T11:46:41.069Z,67.90
2022-10-19T11:49:31.718Z,67.60
2022-10-19T11:52:24.681Z,67.40
2022-10-19T11:54:58.006Z,67.40
2022-10-19T11:57:32.585Z,66.80
2022-10-19T12:00:38.197Z,67.50
2022-10-19T12:03:18.124Z,66.10
2022-10-19T12:06:10.901Z,65.90
2022-10-19T12:08:40.687Z,65.60
2022-10-19T12:12:01.572Z,66.60
2022-10-19T12:14:33.109Z,65.40
2022-10-19T12:17:09.735Z,65.50
2022-10-19T12:19:42.317Z,65.30
2022-10-19T12:22:16.105Z,65.10
2022-10-19T12:24:43.302Z,65.30
2022-10-19T12:27:14.692Z,65.40
2022-10-19T12:29:45.387Z,64.80
2022-10-19T12:32:16.482Z,64.80
2022-10-19T12:34:55.041Z,64.50
2022-10-19T12:38:05.414Z,63.60
2022-10-19T12:40:50.861Z,63.10
2022-10-19T12:43:33.281Z,63.40
2022-10-19T12:46:07.138Z,63.60
2022-10-19T12:48:36.282Z,63.60
2022-10-19T12:51:06.169Z,63.10
2022-10-19T12:53:41.575Z,62.80
2022-10-19T12:56:17.233Z,62.30
2022-10-19T12:58:47.711Z,62.40
2022-10-19T13:01:28.413Z,62.30
2022-10-19T13:04:19.570Z,61.60
2022-10-19T13:07:01.269Z,61.30
2022-10-19T13:09:37.021Z,61.60
2022-10-19T13:12:19.675Z,61.50
2022-10-19T13:14:59.817Z,61.40
2022-10-19T13:17:40.778Z,61.60
2022-10-19T13:20:13.343Z,60.70
2022-10-19T13:22:59.399Z,60.80
2022-10-19T13:25:30.925Z,60.90
2022-10-19T13:28:06.528Z,60.70
2022-10-19T13:30:39.106Z,60.80
2022-10-19T13:33:33.169Z,60.10
2022-10-19T13:35:59.885Z,60.00
2022-10-19T13:39:09.045Z,60.30
2022-10-19T13:41:38.381Z,59.40
2022-10-19T13:44:09.561Z,59.60
2022-10-19T13:46:44.756Z,59.40
2022-10-19T13:49:57.318Z,59.00
2022-10-19T13:52:51.165Z,57.50
2022-10-19T13:55:57.003Z,56.40
2022-10-19T13:58:35.674Z,55.50
2022-10-19T14:01:20.930Z,55.30
2022-10-19T14:04:12.137Z,54.80
2022-10-19T14:06:53.149Z,52.90
2022-10-19T14:09:41.633Z,52.60
2022-10-19T14:12:28.471Z,52.60
2022-10-19T14:14:55.385Z,53.40
2022-10-19T14:17:34.045Z,54.10
2022-10-19T14:20:03.933Z,51.90
2022-10-19T14:22:34.042Z,53.10
2022-10-19T14:25:17.142Z,52.90
2022-10-19T14:27:49.439Z,53.00
2022-10-19T14:30:25.068Z,53.60
2022-10-19T14:32:56.878Z,53.00
2022-10-19T14:35:41.384Z,53.40
2022-10-19T14:38:16.358Z,52.70
2022-10-19T14:40:43.018Z,53.50
2022-10-19T14:43:19.905Z,53.20
2022-10-19T14:46:03.973Z,52.20
2022-10-19T14:48:30.712Z,51.80
2022-10-19T14:50:58.097Z,52.60
2022-10-19T14:53:53.826Z,52.70
2022-10-19T14:56:25.924Z,51.90
2022-10-19T14:58:57.161Z,51.70
2022-10-19T15:01:23.921Z,51.70
2022-10-19T15:03:51.722Z,51.70
2022-10-19T15:06:24.826Z,50.50
2022-10-19T15:09:37.626Z,48.40
2022-10-19T15:12:16.820Z,47.50
2022-10-19T15:14:44.182Z,46.30
2022-10-19T15:17:28.459Z,46.40
2022-10-19T15:19:58.338Z,44.10
2022-10-19T15:22:30.748Z,44.20
2022-10-19T15:25:06.233Z,42.90
2022-10-19T15:27:39.444Z,42.10
2022-10-19T15:30:20.194Z,41.90
2022-10-19T15:32:50.202Z,41.20
2022-10-19T15:35:35.169Z,41.60
2022-10-19T15:38:14.450Z,41.30
2022-10-19T15:40:43.550Z,41.10
2022-10-19T15:43:35.119Z,41.90
2022-10-19T15:46:23.889Z,41.70
2022-10-19T15:48:56.459Z,42.40
2022-10-19T15:51:26.209Z,42.70
2022-10-19T15:54:01.246Z,43.60
2022-10-19T15:56:31.101Z,44.30
2022-10-19T15:58:59.761Z,45.40
2022-10-19T16:01:33.187Z,46.20
2022-10-19T16:04:00.297Z,46.90
2022-10-19T16:06:30.680Z,47.80
2022-10-19T16:09:00.264Z,48.50
2022-10-19T16:11:28.904Z,49.30
2022-10-19T16:13:58.745Z,50.00
2022-10-19T16:16:32.455Z,50.50
2022-10-19T16:19:00.285Z,51.00
2022-10-19T16:21:35.228Z,51.60
2022-10-19T16:24:02.059Z,52.40
2022-10-19T16:26:31.800Z,52.70
2022-10-19T16:28:59.161Z,53.20
2022-10-19T16:31:28.106Z,53.80
2022-10-19T16:33:54.813Z,54.30
2022-10-19T16:36:23.868Z,54.70
2022-10-19T16:38:50.679Z,55.20
2022-10-19T16:41:22.371Z,55.50
2022-10-19T16:43:55.030Z,56.00
2022-10-19T16:46:23.002Z,56.50
2022-10-19T16:48:50.843Z,56.70
2022-10-19T16:51:28.534Z,57.10
2022-10-19T16:53:57.535Z,57.80
2022-10-19T16:56:27.866Z,57.70
2022-10-19T16:58:57.092Z,58.00
2022-10-19T17:01:23.844Z,58.40
2022-10-19T17:03:50.610Z,58.60
2022-10-19T17:06:18.842Z,58.80
2022-10-19T17:11:37.698Z,59.40
2022-10-19T17:14:07.646Z,59.50
2022-10-19T17:16:36.239Z,59.80
2022-10-19T17:19:04.479Z,59.90
2022-10-19T17:21:34.125Z,60.20
2022-10-19T17:24:02.474Z,60.40
2022-10-19T17:26:38.834Z,60.50
2022-10-19T17:29:10.241Z,60.90
2022-10-19T17:31:38.337Z,61.10
2022-10-19T17:34:05.771Z,61.10
2022-10-19T17:36:36.031Z,61.20
2022-10-19T17:39:06.709Z,61.50
2022-10-19T17:41:33.732Z,61.80
2022-10-19T17:44:00.368Z,61.70
2022-10-19T17:46:30.093Z,61.90
2022-10-19T17:48:57.772Z,62.10
2022-10-19T17:51:29.099Z,62.20
2022-10-19T17:54:00.963Z,62.30
2022-10-19T17:56:30.138Z,62.40
2022-10-19T17:58:58.087Z,62.50
2022-10-19T18:01:25.760Z,62.50
2022-10-19T18:03:52.755Z,62.60
2022-10-19T18:06:25.595Z,62.70
2022-10-19T18:08:55.057Z,62.90
2022-10-19T18:11:27.545Z,62.90
2022-10-19T18:13:55.037Z,63.20
2022-10-19T18:16:36.765Z,62.80
2022-10-19T18:19:04.656Z,63.20
2022-10-19T18:21:39.668Z,62.90
2022-10-19T18:24:10.124Z,63.30
2022-10-19T18:26:39.724Z,63.20
2022-10-19T18:29:12.505Z,63.40
2022-10-19T18:31:39.921Z,63.70
2022-10-19T18:34:08.183Z,63.70
2022-10-19T18:36:35.074Z,63.80
2022-10-19T18:39:07.536Z,63.80
2022-10-19T18:41:34.251Z,64.00
2022-10-19T18:44:05.671Z,64.10
2022-10-19T18:46:34.834Z,64.40
2022-10-19T18:49:03.603Z,64.20
2022-10-19T18:51:32.950Z,64.30
2022-10-19T18:53:59.667Z,64.40
2022-10-19T18:56:27.087Z,64.50
2022-10-19T18:58:54.899Z,64.60
2022-10-19T19:01:26.495Z,64.80
2022-10-19T19:03:56.392Z,64.90
2022-10-19T19:06:26.741Z,64.80
2022-10-19T19:09:00.116Z,65.00
2022-10-19T19:11:33.005Z,65.10
2022-10-19T19:14:15.275Z,65.00
2022-10-19T19:16:46.324Z,65.00
2022-10-19T19:19:16.691Z,65.00
2022-10-19T19:21:46.552Z,65.20
2022-10-19T19:24:20.758Z,65.10
2022-10-19T19:26:57.776Z,65.50
2022-10-19T19:29:28.283Z,65.60
2022-10-19T19:31:54.959Z,65.40
2022-10-19T19:34:22.641Z,65.40
2022-10-19T19:36:49.479Z,65.50
2022-10-19T19:39:19.279Z,65.50
2022-10-19T19:41:46.663Z,65.40
2022-10-19T19:44:13.496Z,65.50
2022-10-19T19:46:40.185Z,65.50
2022-10-19T19:49:07.004Z,65.60
2022-10-19T19:51:33.939Z,65.70
2022-10-19T19:54:02.591Z,65.70
2022-10-19T19:56:34.605Z,65.80
2022-10-19T19:59:03.657Z,65.90
2022-10-19T20:01:31.808Z,65.90
2022-10-19T20:04:00.466Z,66.00
2022-10-19T20:06:27.224Z,66.00
2022-10-19T20:08:56.225Z,66.00
2022-10-19T20:11:24.522Z,66.10
2022-10-19T20:13:51.529Z,66.20
2022-10-19T20:16:23.796Z,66.30
2022-10-19T20:18:59.770Z,66.40
2022-10-19T20:21:31.402Z,66.50
2022-10-19T20:23:58.239Z,66.50
2022-10-19T20:26:25.289Z,66.50
2022-10-19T20:28:52.276Z,66.70
2022-10-19T20:31:19.644Z,66.70
2022-10-19T20:33:47.525Z,66.80
2022-10-19T20:36:16.876Z,66.80
2022-10-19T20:38:49.331Z,66.90
2022-10-19T20:41:16.554Z,67.10
2022-10-19T20:43:43.263Z,66.90
2022-10-19T20:46:15.814Z,66.50
2022-10-19T20:48:42.448Z,66.90
2022-10-19T20:51:18.280Z,66.80
2022-10-19T20:53:47.229Z,67.30
2022-10-19T20:56:16.288Z,67.10
2022-10-19T20:58:43.747Z,67.10
2022-10-19T21:01:16.568Z,67.20
2022-10-19T21:03:52.652Z,67.50
2022-10-19T21:06:20.956Z,67.60
2022-10-19T21:08:48.010Z,67.30
2022-10-19T21:11:18.385Z,67.40
2022-10-19T21:13:45.940Z,67.50
2022-10-19T21:16:17.846Z,67.50
2022-10-19T21:18:46.376Z,67.50
2022-10-19T21:21:21.910Z,67.50
2022-10-19T21:23:51.164Z,67.90
2022-10-19T21:26:17.897Z,67.60
2022-10-19T21:28:49.118Z,67.60
2022-10-19T21:31:17.328Z,67.80
2022-10-19T21:33:44.486Z,67.80
2022-10-19T21:36:14.673Z,67.80
2022-10-19T21:38:42.379Z,67.90
2022-10-19T21:41:13.693Z,68.00
2022-10-19T21:43:40.369Z,68.20
2022-10-19T21:46:11.918Z,68.20
2022-10-19T21:48:41.254Z,68.40
2022-10-19T21:51:16.820Z,68.40
2022-10-19T21:53:46.496Z,69.00
2022-10-19T21:56:14.198Z,68.60
2022-10-19T21:58:45.609Z,68.70
2022-10-19T22:01:12.626Z,69.10
2022-10-19T22:03:39.268Z,69.10
2022-10-19T22:06:06.839Z,69.20
2022-10-19T22:08:33.508Z,69.40
2022-10-19T22:11:06.523Z,69.50
2022-10-19T22:13:34.176Z,70.00
2022-10-19T22:16:15.554Z,69.70
2022-10-19T22:18:45.040Z,70.20
2022-10-19T22:21:14.608Z,69.80
2022-10-19T22:23:42.141Z,69.90
2022-10-19T22:26:21.862Z,69.90
2022-10-19T22:28:48.601Z,70.40
2022-10-19T22:31:15.721Z,69.80
2022-10-19T22:33:42.456Z,69.90
2022-10-19T22:36:11.012Z,70.00
2022-10-19T22:38:38.063Z,70.00
2022-10-19T22:41:04.712Z,69.90
2022-10-19T22:43:31.386Z,69.90
2022-10-19T22:45:57.999Z,70.00
2022-10-19T22:48:24.572Z,70.00
2022-10-19T22:50:54.976Z,70.10
2022-10-19T22:53:25.616Z,70.40
2022-10-19T22:55:52.295Z,70.20
2022-10-19T22:58:19.937Z,70.20
2022-10-19T23:00:56.788Z,70.20
2022-10-19T23:03:23.379Z,70.40
2022-10-19T23:05:50.311Z,70.40
2022-10-19T23:08:16.914Z,70.40
2022-10-19T23:10:43.509Z,70.50
2022-10-19T23:13:12.590Z,70.50
2022-10-19T23:15:43.117Z,70.40
2022-10-19T23:18:10.757Z,70.40
2022-10-19T23:20:39.868Z,70.30
2022-10-19T23:23:06.592Z,70.30
2022-10-19T23:25:34.611Z,70.40
2022-10-19T23:28:01.386Z,70.40
2022-10-19T23:30:28.020Z,70.40
2022-10-19T23:32:57.580Z,70.40
2022-10-19T23:35:24.268Z,70.50
2022-10-19T23:37:52.965Z,70.50
2022-10-19T23:40:21.503Z,70.60
2022-10-19T23:42:48.125Z,70.70
2022-10-19T23:45:15.190Z,70.70
2022-10-19T23:47:41.824Z,70.80
2022-10-19T23:50:11.004Z,70.80
2022-10-19T23:52:37.629Z,71.00
2022-10-19T23:55:04.717Z,70.90
2022-10-19T23:57:31.509Z,71.00
2022-10-19T23:59:58.115Z,71.00
